createdAt,value
2018-06-28T00:01:46.614Z,102422.13
2018-06-28T00:06:48.748Z,102424.91
2018-06-28T00:11:50.892Z,102421.98
2018-06-28T00:16:53.153Z,102422.82
2018-06-28T00:21:55.288Z,102425.03
2018-06-28T00:26:57.407Z,102418.81
2018-06-28T00:31:59.563Z,102425.11
2018-06-28T00:37:01.732Z,102423.28
2018-06-28T00:42:03.906Z,102424.56
2018-06-28T00:47:06.031Z,102422.14
2018-06-28T00:52:08.165Z,102415.64
2018-06-28T00:57:10.315Z,102410.12
2018-06-28T01:02:12.427Z,102409.23
2018-06-28T01:07:14.552Z,102405.63
2018-06-28T01:12:16.715Z,102398.38
2018-06-28T01:17:18.847Z,102409.25
2018-06-28T01:22:21.000Z,102405.08
2018-06-28T01:27:23.144Z,102407.27
2018-06-28T01:32:25.324Z,102405.54
2018-06-28T01:37:27.487Z,102408.75
2018-06-28T01:43:44.799Z,102406.59
2018-06-28T01:48:46.948Z,102400.89
2018-06-28T01:53:49.089Z,102403.13
2018-06-28T01:58:51.228Z,102398.88
2018-06-28T02:03:53.344Z,102392.13
2018-06-28T02:08:55.439Z,102396.05
2018-06-28T02:13:57.546Z,102397.62
2018-06-28T02:18:59.687Z,102400.73
2018-06-28T02:24:01.810Z,102396.41
2018-06-28T02:29:04.033Z,102389.91
2018-06-28T02:34:06.180Z,102380.36
2018-06-28T02:39:08.547Z,102386.42
2018-06-28T02:44:10.672Z,102396.05
2018-06-28T02:49:12.796Z,102396.30
2018-06-28T02:54:14.934Z,102392.83
2018-06-28T02:59:17.062Z,102390.48
2018-06-28T03:04:19.194Z,102390.84
2018-06-28T03:09:21.311Z,102391.68
2018-06-28T03:14:23.453Z,102395.87
2018-06-28T03:19:25.619Z,102403.02
2018-06-28T03:24:27.740Z,102401.55
2018-06-28T03:29:29.851Z,102403.42
2018-06-28T03:34:32.022Z,102399.55
2018-06-28T03:39:34.158Z,102401.91
2018-06-28T03:44:36.278Z,102402.82
2018-06-28T03:49:38.460Z,102405.61
2018-06-28T03:54:40.584Z,102406.37
2018-06-28T03:59:42.729Z,102407.02
2018-06-28T04:04:44.844Z,102404.48
2018-06-28T04:09:47.194Z,102409.63
2018-06-28T04:14:49.333Z,102417.27
2018-06-28T04:19:51.448Z,102407.68
2018-06-28T04:24:53.584Z,102409.84
2018-06-28T04:29:55.711Z,102411.02
2018-06-28T04:34:57.880Z,102403.39
2018-06-28T04:40:00.020Z,102402.95
2018-06-28T04:45:02.180Z,102397.33
2018-06-28T04:50:04.349Z,102406.28
2018-06-28T04:55:06.484Z,102401.86
2018-06-28T05:00:08.628Z,102395.94
2018-06-28T05:05:10.748Z,102386.50
2018-06-28T05:10:12.882Z,102385.94
2018-06-28T05:15:14.984Z,102384.62
2018-06-28T05:20:17.130Z,102384.05
2018-06-28T05:25:19.557Z,102377.12
2018-06-28T05:30:21.707Z,102379.84
2018-06-28T05:35:23.892Z,102369.30
2018-06-28T05:40:26.047Z,102363.30
2018-06-28T05:45:28.179Z,102365.64
2018-06-28T05:50:30.309Z,102362.84
2018-06-28T05:55:32.434Z,102368.59
2018-06-28T06:00:34.572Z,102365.52
2018-06-28T06:05:36.743Z,102366.55
2018-06-28T06:10:38.925Z,102357.13
2018-06-28T06:15:41.048Z,102360.10
2018-06-28T06:20:43.180Z,102357.88
2018-06-28T06:25:45.297Z,102366.88
2018-06-28T06:30:47.484Z,102357.48
2018-06-28T06:35:49.656Z,102361.10
2018-06-28T06:40:51.770Z,102366.58
2018-06-28T06:45:53.939Z,102360.02
2018-06-28T06:50:56.094Z,102354.00
2018-06-28T06:55:58.244Z,102356.23
2018-06-28T07:01:00.417Z,102355.97
2018-06-28T07:06:02.552Z,102356.42
2018-06-28T07:11:04.814Z,102353.17
2018-06-28T07:16:07.201Z,102357.63
2018-06-28T07:21:09.246Z,102351.19
2018-06-28T07:26:11.414Z,102354.48
2018-06-28T07:31:13.593Z,102347.52
2018-06-28T07:36:15.835Z,102350.27
2018-06-28T07:41:17.996Z,102356.31
2018-06-28T07:46:20.143Z,102351.36
2018-06-28T07:51:22.251Z,102348.78
2018-06-28T07:56:24.407Z,102346.28
2018-06-28T08:01:26.583Z,102349.34
2018-06-28T08:06:28.726Z,102346.70
2018-06-28T08:11:30.853Z,102346.09
2018-06-28T08:16:32.992Z,102337.77
2018-06-28T08:21:35.181Z,102342.61
2018-06-28T08:26:37.310Z,102332.94
2018-06-28T08:31:39.461Z,102340.61
2018-06-28T08:36:41.650Z,102343.19
2018-06-28T08:41:43.813Z,102330.47
2018-06-28T08:46:45.933Z,102332.85
2018-06-28T08:51:48.084Z,102326.95
2018-06-28T08:56:50.267Z,102336.38
2018-06-28T09:01:52.451Z,102329.46
2018-06-28T09:06:54.771Z,102322.98
2018-06-28T09:11:56.916Z,102329.31
2018-06-28T09:16:59.056Z,102326.28
2018-06-28T09:22:01.174Z,102318.30
2018-06-28T09:27:03.368Z,102318.37
2018-06-28T09:32:05.592Z,102316.61
2018-06-28T09:37:07.830Z,102308.70
2018-06-28T09:42:10.043Z,102302.62
2018-06-28T09:47:12.218Z,102296.36
2018-06-28T09:52:14.356Z,102293.80
2018-06-28T09:57:16.515Z,102292.03
2018-06-28T10:02:18.652Z,102293.58
2018-06-28T10:07:20.837Z,102293.52
2018-06-28T10:12:22.979Z,102286.66
2018-06-28T10:17:25.155Z,102285.50
2018-06-28T10:22:27.271Z,102276.94
2018-06-28T10:27:29.462Z,102272.78
2018-06-28T10:32:31.620Z,102263.86
2018-06-28T10:37:33.829Z,102255.09
2018-06-28T10:42:35.933Z,102252.22
2018-06-28T10:47:38.223Z,102252.71
2018-06-28T10:52:40.327Z,102253.33
2018-06-28T10:57:42.474Z,102237.89
2018-06-28T11:02:44.624Z,102244.43
2018-06-28T11:07:46.830Z,102242.37
2018-06-28T11:12:49.007Z,102232.98
2018-06-28T11:17:51.150Z,102226.95
2018-06-28T11:22:53.304Z,102225.66
2018-06-28T11:27:55.469Z,102223.09
2018-06-28T11:32:57.578Z,102207.19
2018-06-28T11:37:59.761Z,102204.05
2018-06-28T11:43:01.923Z,102202.28
2018-06-28T11:48:04.206Z,102200.92
2018-06-28T11:53:06.377Z,102189.97
2018-06-28T11:58:08.527Z,102190.53
2018-06-28T12:03:10.663Z,102177.73
2018-06-28T12:08:12.788Z,102188.98
2018-06-28T12:13:14.917Z,102181.19
2018-06-28T12:18:17.058Z,102175.05
2018-06-28T12:23:19.200Z,102171.42
2018-06-28T12:28:21.358Z,102165.16
2018-06-28T12:33:23.503Z,102162.41
2018-06-28T12:38:26.132Z,102156.35
2018-06-28T12:43:29.345Z,102144.23
2018-06-28T12:48:31.475Z,102143.28
2018-06-28T12:53:33.630Z,102129.80
2018-06-28T12:58:35.746Z,102125.25
2018-06-28T13:03:37.887Z,102117.42
2018-06-28T13:08:40.098Z,102099.73
2018-06-28T13:13:42.310Z,102103.83
2018-06-28T13:18:45.358Z,102093.12
2018-06-28T13:23:47.466Z,102080.75
2018-06-28T13:28:49.619Z,102078.34
2018-06-28T13:33:51.836Z,102073.82
2018-06-28T13:38:54.009Z,102065.41
2018-06-28T13:43:56.168Z,102063.17
2018-06-28T13:48:58.301Z,102054.56
2018-06-28T13:54:00.435Z,102051.98
2018-06-28T13:59:02.631Z,102045.57
2018-06-28T14:04:04.784Z,102038.51
2018-06-28T14:09:10.278Z,102028.59
2018-06-28T14:14:12.664Z,102019.20
2018-06-28T14:19:14.808Z,102010.34
2018-06-28T14:24:16.960Z,102007.73
2018-06-28T14:29:19.151Z,102000.13
2018-06-28T14:34:21.359Z,101999.55
2018-06-28T14:39:23.575Z,101990.84
2018-06-28T14:44:25.732Z,101984.27
2018-06-28T14:49:27.941Z,101984.56
2018-06-28T14:54:30.114Z,101982.98
2018-06-28T14:59:32.417Z,101978.17
2018-06-28T15:04:34.594Z,101975.33
2018-06-28T15:09:36.809Z,101965.19
2018-06-28T15:14:39.039Z,101970.89
2018-06-28T15:19:41.206Z,101964.34
2018-06-28T15:24:43.367Z,101955.83
2018-06-28T15:29:45.531Z,101957.50
2018-06-28T15:34:47.696Z,101951.98
2018-06-28T15:39:49.870Z,101947.83
2018-06-28T15:44:52.027Z,101944.84
2018-06-28T15:49:54.218Z,101934.94
2018-06-28T15:54:56.363Z,101936.58
2018-06-28T15:59:58.543Z,101933.64
2018-06-28T16:05:00.786Z,101924.62
2018-06-28T16:10:03.066Z,101925.30
2018-06-28T16:15:05.286Z,101916.48
2018-06-28T16:20:07.516Z,101911.18
2018-06-28T16:25:09.991Z,101902.82
2018-06-28T16:30:12.221Z,101907.20
2018-06-28T16:35:14.350Z,101896.71
2018-06-28T16:40:16.521Z,101883.06
2018-06-28T16:45:18.672Z,101883.30
2018-06-28T16:50:21.055Z,101879.31
2018-06-28T16:55:23.249Z,101881.92
2018-06-28T17:00:25.428Z,101884.30
2018-06-28T17:05:27.565Z,101880.94
2018-06-28T17:10:29.727Z,101883.10
2018-06-28T17:15:31.933Z,101869.43
2018-06-28T17:20:34.245Z,101872.22
2018-06-28T17:25:36.400Z,101870.50
2018-06-28T17:30:38.580Z,101868.86
2018-06-28T17:35:40.784Z,101865.06
2018-06-28T17:40:43.043Z,101867.58
2018-06-28T17:45:45.274Z,101865.06
2018-06-28T17:50:47.474Z,101858.16
2018-06-28T17:55:50.494Z,101854.53
2018-06-28T18:00:52.773Z,101853.17
2018-06-28T18:05:54.993Z,101859.05
2018-06-28T18:10:57.187Z,101845.41
2018-06-28T18:16:00.062Z,101834.86
2018-06-28T18:21:02.227Z,101828.55
2018-06-28T18:26:04.881Z,101821.72
2018-06-28T18:31:07.110Z,101826.55
2018-06-28T18:36:09.335Z,101829.93
2018-06-28T18:41:11.608Z,101829.14
2018-06-28T18:46:13.854Z,101819.70
2018-06-28T18:51:16.075Z,101828.82
2018-06-28T18:56:18.288Z,101825.21
2018-06-28T19:01:20.480Z,101830.16
2018-06-28T19:06:22.695Z,101825.98
2018-06-28T19:11:24.923Z,101817.56
2018-06-28T19:16:32.909Z,101821.09
2018-06-28T19:21:40.919Z,101821.22
2018-06-28T19:26:43.110Z,101824.33
2018-06-28T19:31:51.038Z,101827.78
2018-06-28T19:36:53.289Z,101826.11
2018-06-28T19:42:01.338Z,101828.72
2018-06-28T19:47:03.563Z,101832.63
2018-06-28T19:52:11.414Z,101832.19
2018-06-28T19:57:13.630Z,101824.88
2018-06-28T20:02:22.123Z,101843.36
2018-06-28T20:07:24.375Z,101842.92
2018-06-28T20:12:32.355Z,101842.47
2018-06-28T20:17:42.924Z,101843.72
2018-06-28T20:22:45.189Z,101840.66
2018-06-28T20:27:53.144Z,101837.18
2018-06-28T20:33:00.939Z,101830.28
2018-06-28T20:38:03.188Z,101831.05
2018-06-28T20:43:05.465Z,101816.42
2018-06-28T20:48:08.179Z,101829.53
2018-06-28T20:53:10.349Z,101838.06
2018-06-28T20:58:12.529Z,101840.14
2018-06-28T21:03:14.693Z,101846.13
2018-06-28T21:08:16.866Z,101851.22
2018-06-28T21:13:19.018Z,101849.40
2018-06-28T21:18:21.156Z,101847.28
2018-06-28T21:23:23.347Z,101846.99
2018-06-28T21:28:25.521Z,101847.76
2018-06-28T21:33:27.723Z,101843.02
2018-06-28T21:38:30.487Z,101837.19
2018-06-28T21:43:32.687Z,101835.97
2018-06-28T21:48:34.818Z,101828.78
2018-06-28T21:53:36.999Z,101833.92
2018-06-28T21:58:39.160Z,101831.35
2018-06-28T22:03:41.271Z,101828.66
2018-06-28T22:08:43.465Z,101823.94
2018-06-28T22:13:45.627Z,101819.09
2018-06-28T22:18:47.821Z,101815.63
2018-06-28T22:23:49.969Z,101813.27
2018-06-28T22:28:52.145Z,101804.87
2018-06-28T22:33:54.312Z,101800.87
2018-06-28T22:38:56.486Z,101797.91
2018-06-28T22:43:58.679Z,101795.48
2018-06-28T22:49:00.842Z,101793.94
2018-06-28T22:54:03.004Z,101791.39
2018-06-28T22:59:05.142Z,101784.23
2018-06-28T23:04:07.289Z,101782.95
2018-06-28T23:09:09.461Z,101783.19
2018-06-28T23:14:11.620Z,101778.14
2018-06-28T23:19:13.833Z,101775.10
2018-06-28T23:24:15.939Z,101773.95
2018-06-28T23:29:18.132Z,101774.69
2018-06-28T23:34:20.264Z,101777.31
2018-06-28T23:39:22.369Z,101772.09
2018-06-28T23:44:24.530Z,101761.30
2018-06-28T23:49:26.663Z,101766.73
2018-06-28T23:54:28.819Z,101762.08
2018-06-28T23:59:30.999Z,101759.83
